sensor_id;sensor_type;location;lat;lon;timestamp;P1;durP1;ratioP1;P2;durP2;ratioP2
20884;SDS011;10602;48.000;9.654;2023-06-14T00:01:22;4.90;;;3.07;;
20884;SDS011;10602;48.000;9.654;2023-06-14T00:03:49;5.43;;;3.03;;
20884;SDS011;10602;48.000;9.654;2023-06-14T00:06:18;4.33;;;3.27;;
20884;SDS011;10602;48.000;9.654;2023-06-14T00:08:45;5.73;;;3.30;;
20884;SDS011;10602;48.000;9.654;2023-06-14T00:11:13;4.70;;;3.27;;
20884;SDS011;10602;48.000;9.654;2023-06-14T00:13:40;3.97;;;3.10;;
20884;SDS011;10602;48.000;9.654;2023-06-14T00:16:08;5.20;;;3.20;;
20884;SDS011;10602;48.000;9.654;2023-06-14T00:18:36;4.47;;;3.33;;
20884;SDS011;10602;48.000;9.654;2023-06-14T00:21:04;4.73;;;3.07;;
20884;SDS011;10602;48.000;9.654;2023-06-14T00:23:32;4.47;;;3.00;;
20884;SDS011;10602;48.000;9.654;2023-06-14T00:26:00;4.40;;;3.40;;
20884;SDS011;10602;48.000;9.654;2023-06-14T00:28:27;4.57;;;3.30;;
20884;SDS011;10602;48.000;9.654;2023-06-14T00:30:55;4.10;;;3.20;;
20884;SDS011;10602;48.000;9.654;2023-06-14T00:33:22;3.77;;;3.00;;
20884;SDS011;10602;48.000;9.654;2023-06-14T00:35:50;4.23;;;3.00;;
20884;SDS011;10602;48.000;9.654;2023-06-14T00:38:19;7.10;;;3.20;;
20884;SDS011;10602;48.000;9.654;2023-06-14T00:40:47;3.93;;;3.10;;
20884;SDS011;10602;48.000;9.654;2023-06-14T00:43:15;3.43;;;3.13;;
20884;SDS011;10602;48.000;9.654;2023-06-14T00:45:42;3.83;;;2.90;;
20884;SDS011;10602;48.000;9.654;2023-06-14T00:48:10;5.43;;;3.27;;
20884;SDS011;10602;48.000;9.654;2023-06-14T00:50:38;3.93;;;3.10;;
20884;SDS011;10602;48.000;9.654;2023-06-14T00:53:06;4.53;;;3.20;;
20884;SDS011;10602;48.000;9.654;2023-06-14T00:55:34;7.00;;;3.90;;
20884;SDS011;10602;48.000;9.654;2023-06-14T00:58:01;5.00;;;3.67;;
20884;SDS011;10602;48.000;9.654;2023-06-14T01:00:29;5.97;;;3.60;;
20884;SDS011;10602;48.000;9.654;2023-06-14T01:02:56;4.50;;;3.53;;
20884;SDS011;10602;48.000;9.654;2023-06-14T01:05:24;5.13;;;3.33;;
20884;SDS011;10602;48.000;9.654;2023-06-14T01:13:29;4.53;;;3.13;;
20884;SDS011;10602;48.000;9.654;2023-06-14T01:16:01;3.97;;;3.23;;
20884;SDS011;10602;48.000;9.654;2023-06-14T01:18:29;4.27;;;3.47;;
20884;SDS011;10602;48.000;9.654;2023-06-14T01:20:57;4.27;;;3.60;;
20884;SDS011;10602;48.000;9.654;2023-06-14T01:23:25;5.33;;;3.50;;
20884;SDS011;10602;48.000;9.654;2023-06-14T01:25:54;6.43;;;3.90;;
20884;SDS011;10602;48.000;9.654;2023-06-14T01:28:22;6.50;;;3.90;;
20884;SDS011;10602;48.000;9.654;2023-06-14T01:30:51;4.50;;;3.47;;
20884;SDS011;10602;48.000;9.654;2023-06-14T01:33:21;4.57;;;3.47;;
20884;SDS011;10602;48.000;9.654;2023-06-14T01:35:51;4.53;;;3.70;;
20884;SDS011;10602;48.000;9.654;2023-06-14T01:38:23;6.07;;;3.70;;
20884;SDS011;10602;48.000;9.654;2023-06-14T01:40:52;4.50;;;3.70;;
20884;SDS011;10602;48.000;9.654;2023-06-14T01:43:22;4.73;;;4.23;;
20884;SDS011;10602;48.000;9.654;2023-06-14T01:45:51;4.83;;;3.70;;
20884;SDS011;10602;48.000;9.654;2023-06-14T01:48:22;4.77;;;3.70;;
20884;SDS011;10602;48.000;9.654;2023-06-14T01:50:50;5.33;;;4.00;;
20884;SDS011;10602;48.000;9.654;2023-06-14T01:53:18;5.73;;;4.30;;
20884;SDS011;10602;48.000;9.654;2023-06-14T01:55:46;6.20;;;4.10;;
20884;SDS011;10602;48.000;9.654;2023-06-14T01:58:14;5.83;;;3.53;;
20884;SDS011;10602;48.000;9.654;2023-06-14T02:00:45;6.37;;;3.63;;
20884;SDS011;10602;48.000;9.654;2023-06-14T02:03:13;4.63;;;4.00;;
20884;SDS011;10602;48.000;9.654;2023-06-14T02:05:41;5.83;;;3.37;;
20884;SDS011;10602;48.000;9.654;2023-06-14T02:08:08;3.90;;;3.47;;
20884;SDS011;10602;48.000;9.654;2023-06-14T02:10:36;6.00;;;4.27;;
20884;SDS011;10602;48.000;9.654;2023-06-14T02:13:03;6.30;;;3.83;;
20884;SDS011;10602;48.000;9.654;2023-06-14T02:15:31;6.50;;;3.83;;
20884;SDS011;10602;48.000;9.654;2023-06-14T02:18:01;4.57;;;4.03;;
20884;SDS011;10602;48.000;9.654;2023-06-14T02:20:29;5.83;;;3.83;;
20884;SDS011;10602;48.000;9.654;2023-06-14T02:22:57;5.77;;;4.00;;
20884;SDS011;10602;48.000;9.654;2023-06-14T02:25:25;6.17;;;4.03;;
20884;SDS011;10602;48.000;9.654;2023-06-14T02:27:54;4.53;;;3.90;;
20884;SDS011;10602;48.000;9.654;2023-06-14T02:30:21;6.47;;;3.90;;
20884;SDS011;10602;48.000;9.654;2023-06-14T02:32:49;5.13;;;3.93;;
20884;SDS011;10602;48.000;9.654;2023-06-14T02:35:17;4.90;;;3.47;;
20884;SDS011;10602;48.000;9.654;2023-06-14T02:37:46;4.67;;;3.80;;
20884;SDS011;10602;48.000;9.654;2023-06-14T02:40:13;4.30;;;3.73;;
20884;SDS011;10602;48.000;9.654;2023-06-14T02:42:41;5.23;;;4.13;;
20884;SDS011;10602;48.000;9.654;2023-06-14T02:45:08;5.17;;;4.00;;
20884;SDS011;10602;48.000;9.654;2023-06-14T02:47:36;4.90;;;4.07;;
20884;SDS011;10602;48.000;9.654;2023-06-14T02:50:03;5.57;;;4.00;;
20884;SDS011;10602;48.000;9.654;2023-06-14T02:52:31;6.00;;;4.77;;
20884;SDS011;10602;48.000;9.654;2023-06-14T02:54:59;5.67;;;3.83;;
20884;SDS011;10602;48.000;9.654;2023-06-14T02:57:26;5.47;;;4.03;;
20884;SDS011;10602;48.000;9.654;2023-06-14T02:59:54;5.40;;;3.83;;
20884;SDS011;10602;48.000;9.654;2023-06-14T03:02:21;6.97;;;4.20;;
20884;SDS011;10602;48.000;9.654;2023-06-14T03:04:49;4.87;;;4.00;;
20884;SDS011;10602;48.000;9.654;2023-06-14T03:07:16;5.80;;;4.37;;
20884;SDS011;10602;48.000;9.654;2023-06-14T03:09:45;6.90;;;4.10;;
20884;SDS011;10602;48.000;9.654;2023-06-14T03:12:12;5.33;;;3.73;;
20884;SDS011;10602;48.000;9.654;2023-06-14T03:14:40;4.40;;;4.00;;
20884;SDS011;10602;48.000;9.654;2023-06-14T03:17:08;6.43;;;4.30;;
20884;SDS011;10602;48.000;9.654;2023-06-14T03:19:36;6.17;;;4.40;;
20884;SDS011;10602;48.000;9.654;2023-06-14T03:22:04;5.93;;;4.07;;
20884;SDS011;10602;48.000;9.654;2023-06-14T03:24:33;7.13;;;4.20;;
20884;SDS011;10602;48.000;9.654;2023-06-14T03:27:02;6.37;;;4.50;;
20884;SDS011;10602;48.000;9.654;2023-06-14T03:29:30;5.30;;;4.33;;
20884;SDS011;10602;48.000;9.654;2023-06-14T03:31:58;5.47;;;4.10;;
20884;SDS011;10602;48.000;9.654;2023-06-14T03:34:29;6.83;;;4.60;;
20884;SDS011;10602;48.000;9.654;2023-06-14T03:36:56;4.63;;;3.80;;
20884;SDS011;10602;48.000;9.654;2023-06-14T03:39:24;4.87;;;4.23;;
20884;SDS011;10602;48.000;9.654;2023-06-14T03:41:52;5.33;;;4.20;;
20884;SDS011;10602;48.000;9.654;2023-06-14T03:44:19;5.93;;;4.40;;
20884;SDS011;10602;48.000;9.654;2023-06-14T03:46:47;6.50;;;4.03;;
20884;SDS011;10602;48.000;9.654;2023-06-14T03:49:15;6.07;;;4.90;;
20884;SDS011;10602;48.000;9.654;2023-06-14T03:51:43;4.87;;;4.17;;
20884;SDS011;10602;48.000;9.654;2023-06-14T03:54:11;5.00;;;4.30;;
20884;SDS011;10602;48.000;9.654;2023-06-14T03:56:38;6.10;;;4.13;;
20884;SDS011;10602;48.000;9.654;2023-06-14T03:59:06;6.20;;;4.00;;
20884;SDS011;10602;48.000;9.654;2023-06-14T04:01:33;5.97;;;4.10;;
20884;SDS011;10602;48.000;9.654;2023-06-14T04:04:01;6.17;;;3.90;;
20884;SDS011;10602;48.000;9.654;2023-06-14T04:06:29;5.03;;;4.27;;
20884;SDS011;10602;48.000;9.654;2023-06-14T04:09:00;6.83;;;4.20;;
20884;SDS011;10602;48.000;9.654;2023-06-14T04:11:28;4.67;;;4.07;;
20884;SDS011;10602;48.000;9.654;2023-06-14T04:13:57;4.90;;;4.00;;
20884;SDS011;10602;48.000;9.654;2023-06-14T04:16:25;5.47;;;4.07;;
20884;SDS011;10602;48.000;9.654;2023-06-14T04:18:54;5.83;;;4.00;;
20884;SDS011;10602;48.000;9.654;2023-06-14T04:21:23;5.57;;;4.03;;
20884;SDS011;10602;48.000;9.654;2023-06-14T04:23:52;7.43;;;4.80;;
20884;SDS011;10602;48.000;9.654;2023-06-14T04:26:21;5.83;;;3.97;;
20884;SDS011;10602;48.000;9.654;2023-06-14T04:28:53;5.07;;;4.30;;
20884;SDS011;10602;48.000;9.654;2023-06-14T04:31:22;4.70;;;4.07;;
20884;SDS011;10602;48.000;9.654;2023-06-14T04:33:55;5.27;;;4.00;;
20884;SDS011;10602;48.000;9.654;2023-06-14T04:36:23;6.00;;;4.43;;
20884;SDS011;10602;48.000;9.654;2023-06-14T04:38:52;5.63;;;4.10;;
20884;SDS011;10602;48.000;9.654;2023-06-14T04:41:23;8.40;;;4.63;;
20884;SDS011;10602;48.000;9.654;2023-06-14T04:43:53;6.40;;;4.43;;
20884;SDS011;10602;48.000;9.654;2023-06-14T04:46:22;6.37;;;4.10;;
20884;SDS011;10602;48.000;9.654;2023-06-14T04:48:49;5.93;;;4.20;;
20884;SDS011;10602;48.000;9.654;2023-06-14T04:51:17;4.57;;;3.97;;
20884;SDS011;10602;48.000;9.654;2023-06-14T04:53:46;5.77;;;3.93;;
20884;SDS011;10602;48.000;9.654;2023-06-14T04:56:15;5.43;;;4.10;;
20884;SDS011;10602;48.000;9.654;2023-06-14T04:58:42;5.93;;;4.20;;
20884;SDS011;10602;48.000;9.654;2023-06-14T05:01:12;4.90;;;4.10;;
20884;SDS011;10602;48.000;9.654;2023-06-14T05:03:39;5.67;;;4.30;;
20884;SDS011;10602;48.000;9.654;2023-06-14T05:06:07;4.50;;;3.90;;
20884;SDS011;10602;48.000;9.654;2023-06-14T05:08:34;6.70;;;4.67;;
20884;SDS011;10602;48.000;9.654;2023-06-14T05:11:02;4.63;;;3.87;;
20884;SDS011;10602;48.000;9.654;2023-06-14T05:13:29;6.20;;;4.20;;
20884;SDS011;10602;48.000;9.654;2023-06-14T05:15:58;5.27;;;4.50;;
20884;SDS011;10602;48.000;9.654;2023-06-14T05:18:26;6.93;;;4.00;;
20884;SDS011;10602;48.000;9.654;2023-06-14T05:20:54;5.73;;;4.00;;
20884;SDS011;10602;48.000;9.654;2023-06-14T05:23:21;5.53;;;4.20;;
20884;SDS011;10602;48.000;9.654;2023-06-14T05:28:19;5.20;;;4.17;;
20884;SDS011;10602;48.000;9.654;2023-06-14T05:30:46;5.43;;;3.80;;
20884;SDS011;10602;48.000;9.654;2023-06-14T05:33:14;6.43;;;4.23;;
20884;SDS011;10602;48.000;9.654;2023-06-14T05:35:42;5.23;;;3.90;;
20884;SDS011;10602;48.000;9.654;2023-06-14T05:38:09;4.43;;;3.90;;
20884;SDS011;10602;48.000;9.654;2023-06-14T05:40:37;5.67;;;4.40;;
20884;SDS011;10602;48.000;9.654;2023-06-14T05:43:06;4.87;;;4.13;;
20884;SDS011;10602;48.000;9.654;2023-06-14T05:45:34;4.07;;;3.67;;
20884;SDS011;10602;48.000;9.654;2023-06-14T05:48:01;5.27;;;4.10;;
20884;SDS011;10602;48.000;9.654;2023-06-14T05:50:29;4.43;;;3.97;;
20884;SDS011;10602;48.000;9.654;2023-06-14T05:52:56;4.23;;;3.67;;
20884;SDS011;10602;48.000;9.654;2023-06-14T05:55:24;5.20;;;4.00;;
20884;SDS011;10602;48.000;9.654;2023-06-14T05:57:51;5.37;;;3.73;;
20884;SDS011;10602;48.000;9.654;2023-06-14T06:00:19;5.40;;;3.73;;
20884;SDS011;10602;48.000;9.654;2023-06-14T06:02:47;5.40;;;3.57;;
20884;SDS011;10602;48.000;9.654;2023-06-14T06:05:14;6.63;;;4.03;;
20884;SDS011;10602;48.000;9.654;2023-06-14T06:07:42;7.23;;;4.13;;
20884;SDS011;10602;48.000;9.654;2023-06-14T06:10:11;5.37;;;4.40;;
20884;SDS011;10602;48.000;9.654;2023-06-14T06:12:39;5.37;;;3.93;;
20884;SDS011;10602;48.000;9.654;2023-06-14T06:15:07;4.90;;;3.93;;
20884;SDS011;10602;48.000;9.654;2023-06-14T06:17:37;4.97;;;4.20;;
20884;SDS011;10602;48.000;9.654;2023-06-14T06:20:05;5.67;;;3.47;;
20884;SDS011;10602;48.000;9.654;2023-06-14T06:22:34;4.80;;;3.80;;
20884;SDS011;10602;48.000;9.654;2023-06-14T06:25:01;4.97;;;3.60;;
20884;SDS011;10602;48.000;9.654;2023-06-14T06:27:29;5.27;;;3.70;;
20884;SDS011;10602;48.000;9.654;2023-06-14T06:29:56;4.03;;;3.50;;
20884;SDS011;10602;48.000;9.654;2023-06-14T06:32:24;4.53;;;3.60;;
20884;SDS011;10602;48.000;9.654;2023-06-14T06:34:52;5.27;;;3.90;;
20884;SDS011;10602;48.000;9.654;2023-06-14T06:37:19;6.23;;;3.80;;
20884;SDS011;10602;48.000;9.654;2023-06-14T06:39:47;4.90;;;3.57;;
20884;SDS011;10602;48.000;9.654;2023-06-14T06:42:14;5.60;;;4.33;;
20884;SDS011;10602;48.000;9.654;2023-06-14T06:44:42;5.40;;;4.27;;
20884;SDS011;10602;48.000;9.654;2023-06-14T06:47:09;4.70;;;3.80;;
20884;SDS011;10602;48.000;9.654;2023-06-14T06:49:37;4.80;;;3.50;;
20884;SDS011;10602;48.000;9.654;2023-06-14T06:52:05;7.10;;;3.97;;
20884;SDS011;10602;48.000;9.654;2023-06-14T06:54:33;5.53;;;4.13;;
20884;SDS011;10602;48.000;9.654;2023-06-14T06:57:01;8.97;;;5.83;;
20884;SDS011;10602;48.000;9.654;2023-06-14T06:59:29;4.37;;;3.83;;
20884;SDS011;10602;48.000;9.654;2023-06-14T07:01:56;5.13;;;3.63;;
20884;SDS011;10602;48.000;9.654;2023-06-14T07:04:24;4.37;;;3.43;;
20884;SDS011;10602;48.000;9.654;2023-06-14T07:06:52;5.87;;;3.60;;
20884;SDS011;10602;48.000;9.654;2023-06-14T07:09:19;5.17;;;3.60;;
20884;SDS011;10602;48.000;9.654;2023-06-14T07:11:47;5.63;;;3.90;;
20884;SDS011;10602;48.000;9.654;2023-06-14T07:14:15;5.07;;;3.50;;
20884;SDS011;10602;48.000;9.654;2023-06-14T07:16:42;4.60;;;3.23;;
20884;SDS011;10602;48.000;9.654;2023-06-14T07:19:10;4.83;;;3.60;;
20884;SDS011;10602;48.000;9.654;2023-06-14T07:21:38;4.73;;;3.30;;
20884;SDS011;10602;48.000;9.654;2023-06-14T07:24:05;4.40;;;3.63;;
20884;SDS011;10602;48.000;9.654;2023-06-14T07:26:33;4.40;;;3.43;;
20884;SDS011;10602;48.000;9.654;2023-06-14T07:29:01;4.57;;;3.30;;
20884;SDS011;10602;48.000;9.654;2023-06-14T07:31:30;4.17;;;3.43;;
20884;SDS011;10602;48.000;9.654;2023-06-14T07:33:57;4.70;;;3.50;;
20884;SDS011;10602;48.000;9.654;2023-06-14T07:36:25;5.67;;;3.67;;
20884;SDS011;10602;48.000;9.654;2023-06-14T07:38:52;5.70;;;3.57;;
20884;SDS011;10602;48.000;9.654;2023-06-14T07:41:20;5.57;;;3.63;;
20884;SDS011;10602;48.000;9.654;2023-06-14T07:43:47;5.10;;;3.33;;
20884;SDS011;10602;48.000;9.654;2023-06-14T07:46:15;5.90;;;3.37;;
20884;SDS011;10602;48.000;9.654;2023-06-14T07:48:43;4.97;;;3.40;;
20884;SDS011;10602;48.000;9.654;2023-06-14T07:51:10;5.43;;;3.43;;
20884;SDS011;10602;48.000;9.654;2023-06-14T07:53:38;4.27;;;3.87;;
20884;SDS011;10602;48.000;9.654;2023-06-14T07:56:06;3.90;;;3.30;;
20884;SDS011;10602;48.000;9.654;2023-06-14T07:58:34;4.47;;;3.77;;
20884;SDS011;10602;48.000;9.654;2023-06-14T08:01:01;7.00;;;3.53;;
20884;SDS011;10602;48.000;9.654;2023-06-14T08:03:31;4.13;;;3.30;;
20884;SDS011;10602;48.000;9.654;2023-06-14T08:05:58;4.70;;;3.30;;
20884;SDS011;10602;48.000;9.654;2023-06-14T08:08:26;5.00;;;3.33;;
20884;SDS011;10602;48.000;9.654;2023-06-14T08:10:54;5.70;;;3.67;;
20884;SDS011;10602;48.000;9.654;2023-06-14T08:13:21;4.43;;;3.60;;
20884;SDS011;10602;48.000;9.654;2023-06-14T08:15:49;3.60;;;3.17;;
20884;SDS011;10602;48.000;9.654;2023-06-14T08:18:17;4.43;;;3.30;;
20884;SDS011;10602;48.000;9.654;2023-06-14T08:20:44;5.00;;;3.50;;
20884;SDS011;10602;48.000;9.654;2023-06-14T08:23:12;5.10;;;3.43;;
20884;SDS011;10602;48.000;9.654;2023-06-14T08:25:40;4.17;;;3.33;;
20884;SDS011;10602;48.000;9.654;2023-06-14T08:28:08;5.97;;;3.33;;
20884;SDS011;10602;48.000;9.654;2023-06-14T08:30:36;5.40;;;3.27;;
20884;SDS011;10602;48.000;9.654;2023-06-14T08:33:03;7.70;;;3.50;;
20884;SDS011;10602;48.000;9.654;2023-06-14T08:35:31;5.13;;;3.20;;
20884;SDS011;10602;48.000;9.654;2023-06-14T08:37:58;4.63;;;3.33;;
20884;SDS011;10602;48.000;9.654;2023-06-14T08:40:26;6.37;;;3.50;;
20884;SDS011;10602;48.000;9.654;2023-06-14T08:42:56;5.50;;;3.60;;
20884;SDS011;10602;48.000;9.654;2023-06-14T08:45:24;4.23;;;3.80;;
20884;SDS011;10602;48.000;9.654;2023-06-14T08:47:52;5.53;;;3.53;;
20884;SDS011;10602;48.000;9.654;2023-06-14T08:50:22;7.07;;;3.20;;
20884;SDS011;10602;48.000;9.654;2023-06-14T08:52:56;6.63;;;3.33;;
20884;SDS011;10602;48.000;9.654;2023-06-14T08:55:28;4.40;;;3.27;;
20884;SDS011;10602;48.000;9.654;2023-06-14T08:57:57;3.67;;;3.30;;
20884;SDS011;10602;48.000;9.654;2023-06-14T09:00:26;4.50;;;3.67;;
20884;SDS011;10602;48.000;9.654;2023-06-14T09:02:55;5.27;;;3.27;;
20884;SDS011;10602;48.000;9.654;2023-06-14T09:05:25;4.83;;;3.27;;
20884;SDS011;10602;48.000;9.654;2023-06-14T09:07:54;4.47;;;3.20;;
20884;SDS011;10602;48.000;9.654;2023-06-14T09:10:23;6.80;;;3.30;;
20884;SDS011;10602;48.000;9.654;2023-06-14T09:12:52;5.40;;;3.30;;
20884;SDS011;10602;48.000;9.654;2023-06-14T09:15:20;3.87;;;3.23;;
20884;SDS011;10602;48.000;9.654;2023-06-14T09:17:47;4.40;;;3.10;;
20884;SDS011;10602;48.000;9.654;2023-06-14T09:20:15;5.20;;;3.07;;
20884;SDS011;10602;48.000;9.654;2023-06-14T09:22:45;5.20;;;3.07;;
20884;SDS011;10602;48.000;9.654;2023-06-14T09:25:13;5.23;;;3.40;;
20884;SDS011;10602;48.000;9.654;2023-06-14T09:27:41;4.23;;;3.03;;
20884;SDS011;10602;48.000;9.654;2023-06-14T09:30:09;3.87;;;3.33;;
20884;SDS011;10602;48.000;9.654;2023-06-14T09:32:37;4.17;;;3.20;;
20884;SDS011;10602;48.000;9.654;2023-06-14T09:35:06;4.27;;;3.27;;
20884;SDS011;10602;48.000;9.654;2023-06-14T09:37:34;4.37;;;3.03;;
20884;SDS011;10602;48.000;9.654;2023-06-14T09:40:04;7.10;;;3.27;;
20884;SDS011;10602;48.000;9.654;2023-06-14T09:42:33;6.80;;;2.90;;
20884;SDS011;10602;48.000;9.654;2023-06-14T09:45:01;3.90;;;3.07;;
20884;SDS011;10602;48.000;9.654;2023-06-14T09:47:30;3.57;;;2.83;;
20884;SDS011;10602;48.000;9.654;2023-06-14T09:49:58;4.00;;;3.10;;
20884;SDS011;10602;48.000;9.654;2023-06-14T09:52:26;3.93;;;3.30;;
20884;SDS011;10602;48.000;9.654;2023-06-14T09:54:55;4.13;;;2.97;;
20884;SDS011;10602;48.000;9.654;2023-06-14T09:57:24;4.90;;;3.10;;
20884;SDS011;10602;48.000;9.654;2023-06-14T10:00:00;5.07;;;3.43;;
20884;SDS011;10602;48.000;9.654;2023-06-14T10:02:29;7.43;;;3.57;;
20884;SDS011;10602;48.000;9.654;2023-06-14T10:05:03;3.70;;;3.30;;
20884;SDS011;10602;48.000;9.654;2023-06-14T10:07:38;3.90;;;3.23;;
20884;SDS011;10602;48.000;9.654;2023-06-14T10:10:20;3.87;;;3.30;;
20884;SDS011;10602;48.000;9.654;2023-06-14T10:12:48;3.73;;;3.30;;
20884;SDS011;10602;48.000;9.654;2023-06-14T10:15:30;4.80;;;3.37;;
20884;SDS011;10602;48.000;9.654;2023-06-14T10:18:05;3.47;;;3.03;;
20884;SDS011;10602;48.000;9.654;2023-06-14T10:20:37;4.03;;;3.17;;
20884;SDS011;10602;48.000;9.654;2023-06-14T10:23:10;4.53;;;3.30;;
20884;SDS011;10602;48.000;9.654;2023-06-14T10:25:38;4.77;;;3.17;;
20884;SDS011;10602;48.000;9.654;2023-06-14T10:33:41;4.13;;;3.27;;
20884;SDS011;10602;48.000;9.654;2023-06-14T10:39:06;4.27;;;3.37;;
20884;SDS011;10602;48.000;9.654;2023-06-14T10:41:52;5.40;;;3.67;;
20884;SDS011;10602;48.000;9.654;2023-06-14T10:46:54;4.03;;;3.50;;
20884;SDS011;10602;48.000;9.654;2023-06-14T10:49:39;4.57;;;3.90;;
20884;SDS011;10602;48.000;9.654;2023-06-14T10:52:08;4.30;;;3.37;;
20884;SDS011;10602;48.000;9.654;2023-06-14T10:54:55;6.40;;;3.70;;
20884;SDS011;10602;48.000;9.654;2023-06-14T10:57:16;5.60;;;3.47;;
20884;SDS011;10602;48.000;9.654;2023-06-14T10:59:43;4.63;;;3.53;;
20884;SDS011;10602;48.000;9.654;2023-06-14T11:04:58;4.67;;;3.30;;
20884;SDS011;10602;48.000;9.654;2023-06-14T11:13:06;4.90;;;3.40;;
20884;SDS011;10602;48.000;9.654;2023-06-14T11:15:35;5.03;;;3.50;;
20884;SDS011;10602;48.000;9.654;2023-06-14T11:18:04;3.50;;;3.20;;
20884;SDS011;10602;48.000;9.654;2023-06-14T11:20:35;4.73;;;3.50;;
20884;SDS011;10602;48.000;9.654;2023-06-14T11:23:03;3.83;;;3.07;;
20884;SDS011;10602;48.000;9.654;2023-06-14T11:25:31;4.20;;;3.33;;
20884;SDS011;10602;48.000;9.654;2023-06-14T11:27:59;4.13;;;3.40;;
20884;SDS011;10602;48.000;9.654;2023-06-14T11:30:26;4.23;;;3.10;;
20884;SDS011;10602;48.000;9.654;2023-06-14T11:32:54;3.83;;;3.20;;
20884;SDS011;10602;48.000;9.654;2023-06-14T11:35:22;4.30;;;3.90;;
20884;SDS011;10602;48.000;9.654;2023-06-14T11:37:56;6.50;;;3.33;;
20884;SDS011;10602;48.000;9.654;2023-06-14T11:40:24;3.47;;;3.10;;
20884;SDS011;10602;48.000;9.654;2023-06-14T11:42:59;4.73;;;3.30;;
20884;SDS011;10602;48.000;9.654;2023-06-14T11:45:29;4.43;;;3.40;;
20884;SDS011;10602;48.000;9.654;2023-06-14T11:47:57;3.53;;;3.23;;
20884;SDS011;10602;48.000;9.654;2023-06-14T11:50:27;5.20;;;3.27;;
20884;SDS011;10602;48.000;9.654;2023-06-14T11:52:55;5.13;;;3.23;;
20884;SDS011;10602;48.000;9.654;2023-06-14T11:55:25;3.30;;;3.00;;
20884;SDS011;10602;48.000;9.654;2023-06-14T11:57:56;5.93;;;3.20;;
20884;SDS011;10602;48.000;9.654;2023-06-14T12:00:24;3.40;;;3.10;;
20884;SDS011;10602;48.000;9.654;2023-06-14T12:02:53;7.23;;;3.73;;
20884;SDS011;10602;48.000;9.654;2023-06-14T12:05:22;3.73;;;3.10;;
20884;SDS011;10602;48.000;9.654;2023-06-14T12:07:50;4.20;;;3.20;;
20884;SDS011;10602;48.000;9.654;2023-06-14T12:10:19;3.73;;;2.97;;
20884;SDS011;10602;48.000;9.654;2023-06-14T12:12:47;4.73;;;3.50;;
20884;SDS011;10602;48.000;9.654;2023-06-14T12:15:15;4.13;;;3.30;;
20884;SDS011;10602;48.000;9.654;2023-06-14T12:17:43;3.40;;;3.10;;
20884;SDS011;10602;48.000;9.654;2023-06-14T12:20:12;5.03;;;3.80;;
20884;SDS011;10602;48.000;9.654;2023-06-14T12:22:50;5.80;;;3.20;;
20884;SDS011;10602;48.000;9.654;2023-06-14T12:27:58;4.70;;;3.25;;
20884;SDS011;10602;48.000;9.654;2023-06-14T12:30:33;3.58;;;3.25;;
20884;SDS011;10602;48.000;9.654;2023-06-14T12:33:03;3.37;;;2.98;;
20884;SDS011;10602;48.000;9.654;2023-06-14T12:35:31;3.98;;;3.12;;
20884;SDS011;10602;48.000;9.654;2023-06-14T12:37:59;4.00;;;3.40;;
20884;SDS011;10602;48.000;9.654;2023-06-14T12:40:27;3.58;;;3.27;;
20884;SDS011;10602;48.000;9.654;2023-06-14T12:42:54;3.55;;;3.25;;
20884;SDS011;10602;48.000;9.654;2023-06-14T12:45:24;3.35;;;2.85;;
20884;SDS011;10602;48.000;9.654;2023-06-14T12:47:56;5.47;;;3.20;;
20884;SDS011;10602;48.000;9.654;2023-06-14T12:50:23;3.77;;;3.20;;
20884;SDS011;10602;48.000;9.654;2023-06-14T12:52:52;4.13;;;3.30;;
20884;SDS011;10602;48.000;9.654;2023-06-14T12:55:20;3.67;;;3.37;;
20884;SDS011;10602;48.000;9.654;2023-06-14T12:57:47;4.42;;;3.10;;
20884;SDS011;10602;48.000;9.654;2023-06-14T13:00:17;4.37;;;3.70;;
20884;SDS011;10602;48.000;9.654;2023-06-14T13:02:48;4.00;;;3.50;;
20884;SDS011;10602;48.000;9.654;2023-06-14T13:05:16;3.40;;;3.10;;
20884;SDS011;10602;48.000;9.654;2023-06-14T13:07:44;4.80;;;3.37;;
20884;SDS011;10602;48.000;9.654;2023-06-14T13:10:11;4.13;;;3.10;;
20884;SDS011;10602;48.000;9.654;2023-06-14T13:12:39;3.73;;;3.37;;
20884;SDS011;10602;48.000;9.654;2023-06-14T13:15:07;5.10;;;3.17;;
20884;SDS011;10602;48.000;9.654;2023-06-14T13:17:35;3.70;;;3.40;;
20884;SDS011;10602;48.000;9.654;2023-06-14T13:20:06;4.90;;;3.40;;
20884;SDS011;10602;48.000;9.654;2023-06-14T13:22:34;4.70;;;3.30;;
20884;SDS011;10602;48.000;9.654;2023-06-14T13:25:03;3.70;;;3.40;;
20884;SDS011;10602;48.000;9.654;2023-06-14T13:27:31;5.10;;;3.50;;
20884;SDS011;10602;48.000;9.654;2023-06-14T13:29:58;4.33;;;3.37;;
20884;SDS011;10602;48.000;9.654;2023-06-14T13:32:26;5.03;;;3.37;;
20884;SDS011;10602;48.000;9.654;2023-06-14T13:34:54;5.17;;;3.37;;
20884;SDS011;10602;48.000;9.654;2023-06-14T13:37:21;4.60;;;3.17;;
20884;SDS011;10602;48.000;9.654;2023-06-14T13:39:49;4.63;;;3.50;;
20884;SDS011;10602;48.000;9.654;2023-06-14T13:42:17;4.43;;;3.23;;
20884;SDS011;10602;48.000;9.654;2023-06-14T13:44:44;3.63;;;3.27;;
20884;SDS011;10602;48.000;9.654;2023-06-14T13:47:12;4.60;;;3.30;;
20884;SDS011;10602;48.000;9.654;2023-06-14T13:49:39;3.97;;;3.57;;
20884;SDS011;10602;48.000;9.654;2023-06-14T13:52:07;4.57;;;3.00;;
20884;SDS011;10602;48.000;9.654;2023-06-14T13:54:34;4.13;;;3.40;;
20884;SDS011;10602;48.000;9.654;2023-06-14T13:57:02;3.70;;;3.23;;
20884;SDS011;10602;48.000;9.654;2023-06-14T13:59:30;4.23;;;3.10;;
20884;SDS011;10602;48.000;9.654;2023-06-14T14:01:57;3.47;;;3.17;;
20884;SDS011;10602;48.000;9.654;2023-06-14T14:04:24;5.83;;;3.60;;
20884;SDS011;10602;48.000;9.654;2023-06-14T14:06:52;3.80;;;3.30;;
20884;SDS011;10602;48.000;9.654;2023-06-14T14:09:19;5.07;;;3.20;;
20884;SDS011;10602;48.000;9.654;2023-06-14T14:11:47;4.73;;;3.50;;
20884;SDS011;10602;48.000;9.654;2023-06-14T14:14:14;3.97;;;3.57;;
20884;SDS011;10602;48.000;9.654;2023-06-14T14:16:42;3.77;;;3.20;;
20884;SDS011;10602;48.000;9.654;2023-06-14T14:19:17;3.80;;;3.50;;
20884;SDS011;10602;48.000;9.654;2023-06-14T14:21:44;3.73;;;3.30;;
20884;SDS011;10602;48.000;9.654;2023-06-14T14:24:12;4.77;;;3.40;;
20884;SDS011;10602;48.000;9.654;2023-06-14T14:26:40;3.43;;;3.13;;
20884;SDS011;10602;48.000;9.654;2023-06-14T14:29:07;5.30;;;3.53;;
20884;SDS011;10602;48.000;9.654;2023-06-14T14:31:37;4.53;;;3.20;;
20884;SDS011;10602;48.000;9.654;2023-06-14T14:34:04;7.70;;;3.50;;
20884;SDS011;10602;48.000;9.654;2023-06-14T14:36:32;4.23;;;3.27;;
20884;SDS011;10602;48.000;9.654;2023-06-14T14:39:01;4.30;;;3.00;;
20884;SDS011;10602;48.000;9.654;2023-06-14T14:41:28;3.77;;;3.20;;
20884;SDS011;10602;48.000;9.654;2023-06-14T14:43:56;3.43;;;3.13;;
20884;SDS011;10602;48.000;9.654;2023-06-14T14:46:24;3.30;;;2.90;;
20884;SDS011;10602;48.000;9.654;2023-06-14T14:48:52;4.07;;;3.10;;
20884;SDS011;10602;48.000;9.654;2023-06-14T14:51:19;3.80;;;3.30;;
20884;SDS011;10602;48.000;9.654;2023-06-14T14:53:47;4.67;;;3.40;;
20884;SDS011;10602;48.000;9.654;2023-06-14T14:56:14;4.33;;;3.37;;
20884;SDS011;10602;48.000;9.654;2023-06-14T14:58:42;4.40;;;3.17;;
20884;SDS011;10602;48.000;9.654;2023-06-14T15:01:10;5.70;;;3.40;;
20884;SDS011;10602;48.000;9.654;2023-06-14T15:03:37;4.73;;;3.07;;
20884;SDS011;10602;48.000;9.654;2023-06-14T15:06:05;4.20;;;3.07;;
20884;SDS011;10602;48.000;9.654;2023-06-14T15:08:32;3.93;;;3.43;;
20884;SDS011;10602;48.000;9.654;2023-06-14T15:11:00;3.90;;;3.50;;
20884;SDS011;10602;48.000;9.654;2023-06-14T15:13:28;3.93;;;3.40;;
20884;SDS011;10602;48.000;9.654;2023-06-14T15:15:56;5.53;;;3.50;;
20884;SDS011;10602;48.000;9.654;2023-06-14T15:18:23;4.10;;;3.23;;
20884;SDS011;10602;48.000;9.654;2023-06-14T15:20:51;3.67;;;3.23;;
20884;SDS011;10602;48.000;9.654;2023-06-14T15:23:18;3.73;;;3.20;;
20884;SDS011;10602;48.000;9.654;2023-06-14T15:25:48;3.63;;;3.30;;